Aérodrome :
LOGIN :

S'inscrire | Disclaimer

   EN    FR    IT 

 










Légende :    VFR   VFR Marginal   IFR   IFR Intensif   IFR Très Intensif
Visi : 
Plafond : 
>= 8 km
>= 3000ft
5 à 8 km
1000 à 3000 ft
1500m à 5 km
500 à 1000 ft
800 à 1500m
200 à 500 ft
< 800m
< 200 ft
Symboles :   Orages  Brouillard  Fortes neiges  Fortes précipitations  Vent > 20 kt
SIGMETs :   Divers  Orages  Givrage  Turbulence  Onde Orograph.  Cendres Volcan.






- Altitude de l'aérodrome : 1036 ft
- Code IATA : CLJ


LRCL - Cluj-Napoca International

DERNIER METAR :
  • 061100Z 11004KT 020V190 9999 FEW050 29/16 Q1010

METARs EXPIRÉS :
  • 061030Z 11005KT 040V150 9999 FEW048 29/16 Q1010
  • 061000Z 13005KT 080V190 9999 FEW045 28/16 Q1011
  • 060930Z VRB03KT 9999 FEW045 28/16 Q1011
  • 060900Z VRB03KT CAVOK 27/16 Q1011
  • 060830Z VRB03KT CAVOK 27/16 Q1012

TAF TAF LRCL
Valide du 06 à 09h jusqu'au 06 à 18h UTC


060800Z 0609/0618 VRB04KT CAVOK
PROB40
TEMPO 0611/0615 SCT050CB



MET'MAP, la Météo Aéronautique d'un coup d'oeil ! - Copyright ORBIFLY Décembre 2007 - Disclaimer

ORBIFLY MET'MAP TEAM :

Programmation & Développement : Alexandra Zaïnal
Sur une idée originale de : Baudouin d'Aumeries
Assistance à la programmation : Marc-Olivier Méhu
Soutien technique & logistique : Manuel Goepfert

Contact : metmap@orbifly.com




SOURCES & CREDITS :

   NOAA